Time;durP1;ratioP1;P1;durP2;ratioP2;P2;SDS_P1;SDS_P2;PMS_P1;PMS_P2;Temp;Humidity;BMP_temperature;BMP_pressure;BME280_temperature;BME280_humidity;BME280_pressure;Samples;Min_cycle;Max_cycle;Signal;HPM_P1;HPM_P2
2024/01/16 00:00:57;;;;;;;;;;;-4.30;99.90;;;;;;5054083;28;19970;-87
2024/01/16 00:03:24;;;;;;;;;;;-4.20;99.90;;;;;;5063125;28;19924;-86
2024/01/16 00:05:51;;;;;;;;;;;-4.20;99.90;;;;;;5083203;28;19939;-88
2024/01/16 00:08:18;;;;;;;;;;;-4.20;99.90;;;;;;5081774;28;19929;-83
2024/01/16 00:10:45;;;;;;;;;;;-4.10;99.90;;;;;;5065267;28;20019;-82
2024/01/16 00:13:12;;;;;;;;;;;-4.20;99.90;;;;;;5091955;28;20259;-83
2024/01/16 00:15:41;;;;;;;;;;;-4.20;99.90;;;;;;5079132;28;19931;-84
2024/01/16 00:18:08;;;;;;;;;;;-4.20;99.90;;;;;;5079419;28;19930;-83
2024/01/16 00:20:35;;;;;;;;;;;-4.20;99.90;;;;;;5053429;28;19990;-83
2024/01/16 00:23:03;;;;;;;;;;;-4.10;99.90;;;;;;5071090;28;19925;-82
2024/01/16 00:25:30;;;;;;;;;;;-4.10;99.90;;;;;;5071533;28;19929;-83
2024/01/16 00:27:56;;;;;;;;;;;-4.20;99.90;;;;;;5073633;28;19924;-81
2024/01/16 00:30:23;;;;;;;;;;;-4.20;99.90;;;;;;5048883;28;20385;-84
2024/01/16 00:32:50;;;;;;;;;;;-4.20;99.90;;;;;;5066283;28;20321;-83
2024/01/16 00:35:17;;;;;;;;;;;-4.20;99.90;;;;;;5073834;28;20324;-81
2024/01/16 00:37:45;;;;;;;;;;;-4.20;99.90;;;;;;5055975;28;19924;-84
2024/01/16 00:40:12;;;;;;;;;;;-4.20;99.90;;;;;;5071615;28;19928;-83
2024/01/16 00:42:38;;;;;;;;;;;-4.30;99.90;;;;;;5081726;28;20343;-84
2024/01/16 00:45:05;;;;;;;;;;;-4.30;99.90;;;;;;5056939;28;19933;-85
2024/01/16 00:47:32;;;;;;;;;;;-4.30;99.90;;;;;;5073510;28;20365;-84
2024/01/16 00:50:02;;;;;;;;;;;-4.30;99.90;;;;;;5054762;28;20318;-84
2024/01/16 00:52:29;;;;;;;;;;;-4.30;99.90;;;;;;5072164;28;19959;-84
2024/01/16 00:54:56;;;;;;;;;;;-4.30;99.90;;;;;;5068889;28;19954;-84
2024/01/16 00:57:23;;;;;;;;;;;-4.40;99.90;;;;;;5049492;28;19931;-85
2024/01/16 00:59:50;;;;;;;;;;;-4.40;99.90;;;;;;5075950;28;20370;-82
2024/01/16 01:02:17;;;;;;;;;;;-4.40;99.90;;;;;;5066987;28;19924;-84
2024/01/16 01:04:44;;;;;;;;;;;-4.40;99.90;;;;;;5061448;28;20388;-84
2024/01/16 01:07:14;;;;;;;;;;;-4.40;99.90;;;;;;5075113;28;20016;-83
2024/01/16 01:09:42;;;;;;;;;;;-4.40;99.90;;;;;;5071322;28;19924;-83
2024/01/16 01:12:09;;;;;;;;;;;-4.40;99.90;;;;;;5073285;28;19933;-83
2024/01/16 01:14:36;;;;;;;;;;;-4.50;99.90;;;;;;5053648;28;19931;-84
2024/01/16 01:17:04;;;;;;;;;;;-4.50;99.90;;;;;;5051864;28;19924;-83
2024/01/16 01:19:30;;;;;;;;;;;-4.40;99.90;;;;;;5069729;28;19924;-83
2024/01/16 01:21:58;;;;;;;;;;;-4.50;99.90;;;;;;5088874;28;20290;-83
2024/01/16 01:24:24;;;;;;;;;;;-4.50;99.90;;;;;;5075103;28;19959;-82
2024/01/16 01:26:51;;;;;;;;;;;-4.50;99.90;;;;;;5073779;28;20396;-88
2024/01/16 01:29:18;;;;;;;;;;;-4.50;99.90;;;;;;5059668;28;19928;-85
2024/01/16 01:31:47;;;;;;;;;;;-4.50;99.90;;;;;;5065041;28;19924;-86
2024/01/16 01:34:15;;;;;;;;;;;-4.50;99.90;;;;;;5059519;28;19950;-85
2024/01/16 01:36:43;;;;;;;;;;;-4.50;99.90;;;;;;5059987;28;19956;-86
2024/01/16 01:39:10;;;;;;;;;;;-4.50;99.90;;;;;;5097522;28;20023;-83
2024/01/16 01:41:38;;;;;;;;;;;-4.50;99.90;;;;;;5078498;28;19933;-84
2024/01/16 01:44:06;;;;;;;;;;;-4.50;99.90;;;;;;5075612;28;20303;-86
2024/01/16 01:46:34;;;;;;;;;;;-4.60;99.90;;;;;;5077061;28;20641;-88
2024/01/16 01:49:02;;;;;;;;;;;-4.60;99.90;;;;;;5065528;28;19977;-83
2024/01/16 01:51:29;;;;;;;;;;;-4.60;99.90;;;;;;5082569;28;19943;-86
2024/01/16 01:53:58;;;;;;;;;;;-4.60;99.90;;;;;;5086200;28;19939;-83
2024/01/16 01:56:25;;;;;;;;;;;-4.60;99.90;;;;;;5086411;28;19913;-86
2024/01/16 01:58:56;;;;;;;;;;;-4.60;99.90;;;;;;5062014;28;19928;-87
2024/01/16 02:01:25;;;;;;;;;;;-4.70;99.90;;;;;;5093833;28;19996;-87
2024/01/16 02:03:52;;;;;;;;;;;-4.60;99.90;;;;;;5082921;28;19962;-85
2024/01/16 02:06:19;;;;;;;;;;;-4.70;99.90;;;;;;5077417;28;19947;-83
2024/01/16 02:08:46;;;;;;;;;;;-4.70;99.90;;;;;;5079034;28;20343;-85
2024/01/16 02:11:13;;;;;;;;;;;-4.70;99.90;;;;;;5072843;28;19938;-85
2024/01/16 02:13:41;;;;;;;;;;;-4.60;99.90;;;;;;5086433;28;20035;-86
2024/01/16 02:16:19;;;;;;;;;;;-4.70;99.90;;;;;;5088613;28;19924;-86
2024/01/16 02:18:46;;;;;;;;;;;-4.60;99.90;;;;;;5086417;28;19928;-84
2024/01/16 02:21:16;;;;;;;;;;;-4.70;99.90;;;;;;5069232;28;19935;-84
2024/01/16 02:23:43;;;;;;;;;;;-4.70;99.90;;;;;;5089297;28;19916;-86
2024/01/16 02:26:10;;;;;;;;;;;-4.70;99.90;;;;;;5053864;28;20149;-83
2024/01/16 02:28:37;;;;;;;;;;;-4.70;99.90;;;;;;5063620;28;19936;-84
2024/01/16 02:31:04;;;;;;;;;;;-4.70;99.90;;;;;;5062033;28;19936;-87
2024/01/16 02:33:31;;;;;;;;;;;-4.70;99.90;;;;;;5073369;28;19938;-84
2024/01/16 02:35:59;;;;;;;;;;;-4.70;99.90;;;;;;5095235;28;20301;-85
2024/01/16 02:38:26;;;;;;;;;;;-4.70;99.90;;;;;;5058871;28;19925;-84
2024/01/16 02:40:52;;;;;;;;;;;-4.70;99.90;;;;;;5075755;28;19933;-84
2024/01/16 02:43:19;;;;;;;;;;;-4.70;99.90;;;;;;5073048;28;19924;-84
2024/01/16 02:45:46;;;;;;;;;;;-4.70;99.90;;;;;;5073863;28;19923;-85
2024/01/16 02:48:13;;;;;;;;;;;-4.70;99.90;;;;;;5052533;28;19951;-85
2024/01/16 02:50:40;;;;;;;;;;;-4.70;99.90;;;;;;5072944;28;19931;-84
2024/01/16 02:53:07;;;;;;;;;;;-4.70;99.90;;;;;;5070979;28;19935;-82
2024/01/16 02:55:34;;;;;;;;;;;-4.60;99.90;;;;;;5074789;28;19924;-84
2024/01/16 02:58:03;;;;;;;;;;;-4.70;99.90;;;;;;5095190;28;19931;-84
2024/01/16 03:00:30;;;;;;;;;;;-4.70;99.90;;;;;;5079888;28;19925;-84
2024/01/16 03:02:56;;;;;;;;;;;-4.60;99.90;;;;;;5070498;28;19936;-83
2024/01/16 03:05:24;;;;;;;;;;;-4.60;99.90;;;;;;5075217;28;20372;-83
2024/01/16 03:07:51;;;;;;;;;;;-4.60;99.90;;;;;;5091341;28;19956;-84
2024/01/16 03:10:18;;;;;;;;;;;-4.60;99.90;;;;;;5075973;28;19930;-84
2024/01/16 03:12:45;;;;;;;;;;;-4.70;99.90;;;;;;5074210;28;20385;-84
2024/01/16 03:15:11;;;;;;;;;;;-4.70;99.90;;;;;;5073563;28;19925;-84
2024/01/16 03:17:38;;;;;;;;;;;-4.70;99.90;;;;;;5070145;28;19967;-84
2024/01/16 03:20:06;;;;;;;;;;;-4.70;99.90;;;;;;5082120;28;19924;-84
2024/01/16 03:22:33;;;;;;;;;;;-4.80;99.90;;;;;;5052638;28;19931;-84
2024/01/16 03:25:02;;;;;;;;;;;-4.80;99.90;;;;;;5079650;28;19978;-83
2024/01/16 03:27:29;;;;;;;;;;;-4.80;99.90;;;;;;5078600;28;19924;-85
2024/01/16 03:29:56;;;;;;;;;;;-4.90;99.90;;;;;;5057302;28;19924;-84
2024/01/16 03:32:23;;;;;;;;;;;-4.90;99.90;;;;;;5072963;28;19928;-84
2024/01/16 03:34:50;;;;;;;;;;;-4.80;99.90;;;;;;5058673;28;19935;-85
2024/01/16 03:37:17;;;;;;;;;;;-4.80;99.90;;;;;;5072852;28;19925;-84
2024/01/16 03:39:45;;;;;;;;;;;-4.80;99.90;;;;;;5052352;28;19929;-82
2024/01/16 03:42:12;;;;;;;;;;;-4.70;99.90;;;;;;5071862;28;19924;-84
2024/01/16 03:44:40;;;;;;;;;;;-4.70;99.90;;;;;;5072862;28;20441;-84
2024/01/16 03:47:07;;;;;;;;;;;-4.70;99.90;;;;;;5046508;28;20034;-84
2024/01/16 03:49:34;;;;;;;;;;;-4.70;99.90;;;;;;5055670;28;20012;-85
2024/01/16 03:52:01;;;;;;;;;;;-4.70;99.90;;;;;;5075111;28;19924;-85
2024/01/16 03:54:28;;;;;;;;;;;-4.70;99.90;;;;;;5078964;28;20229;-82
2024/01/16 03:56:55;;;;;;;;;;;-4.70;99.90;;;;;;5055944;28;19924;-83
2024/01/16 03:59:23;;;;;;;;;;;-4.70;99.90;;;;;;5055727;28;19929;-81
2024/01/16 04:01:50;;;;;;;;;;;-4.70;99.90;;;;;;5074923;28;19955;-82
2024/01/16 04:04:17;;;;;;;;;;;-4.70;99.90;;;;;;5056932;28;20440;-82
2024/01/16 04:06:44;;;;;;;;;;;-4.70;99.90;;;;;;5056615;28;19935;-83
2024/01/16 04:09:10;;;;;;;;;;;-4.70;99.90;;;;;;5078309;28;20373;-83
2024/01/16 04:11:37;;;;;;;;;;;-4.70;99.90;;;;;;5055530;28;20038;-83
2024/01/16 04:14:04;;;;;;;;;;;-4.70;99.90;;;;;;5057693;28;19933;-84
2024/01/16 04:16:31;;;;;;;;;;;-4.70;99.90;;;;;;5049669;28;19930;-82
2024/01/16 04:18:59;;;;;;;;;;;-4.70;99.90;;;;;;5073144;28;19970;-83
2024/01/16 04:21:26;;;;;;;;;;;-4.70;99.90;;;;;;5048592;28;20365;-83
2024/01/16 04:23:53;;;;;;;;;;;-4.80;99.90;;;;;;5070502;28;19932;-81
2024/01/16 04:26:21;;;;;;;;;;;-4.70;99.90;;;;;;5066899;28;19928;-83
2024/01/16 04:28:48;;;;;;;;;;;-4.80;99.90;;;;;;5050596;28;20212;-84
2024/01/16 04:31:17;;;;;;;;;;;-4.80;99.90;;;;;;5089956;28;20668;-83
2024/01/16 04:33:44;;;;;;;;;;;-4.70;99.90;;;;;;5058513;28;20250;-84
2024/01/16 04:36:11;;;;;;;;;;;-4.70;99.90;;;;;;5076682;28;19939;-84
2024/01/16 04:38:38;;;;;;;;;;;-4.70;99.90;;;;;;5083531;28;19932;-83
2024/01/16 04:41:05;;;;;;;;;;;-4.70;99.90;;;;;;5074045;28;19939;-83
2024/01/16 04:43:32;;;;;;;;;;;-4.70;99.90;;;;;;5072214;28;19932;-82
2024/01/16 04:45:58;;;;;;;;;;;-4.70;99.90;;;;;;5072382;28;20356;-83
2024/01/16 04:48:29;;;;;;;;;;;-4.80;99.90;;;;;;5054212;28;20019;-83
2024/01/16 04:50:56;;;;;;;;;;;-4.80;99.90;;;;;;5067666;28;20015;-82
2024/01/16 04:53:23;;;;;;;;;;;-4.80;99.90;;;;;;5052124;28;19982;-83
2024/01/16 04:55:51;;;;;;;;;;;-4.80;99.90;;;;;;5072102;28;20373;-84
2024/01/16 04:58:18;;;;;;;;;;;-4.80;99.90;;;;;;5082706;28;19924;-84
2024/01/16 05:00:46;;;;;;;;;;;-4.80;99.90;;;;;;5074038;28;19970;-83
2024/01/16 05:03:14;;;;;;;;;;;-4.90;99.90;;;;;;5032207;28;19928;-83
2024/01/16 05:05:41;;;;;;;;;;;-4.80;99.90;;;;;;5047901;28;19924;-83
2024/01/16 05:08:08;;;;;;;;;;;-4.80;99.90;;;;;;5071607;28;19925;-83
2024/01/16 05:10:35;;;;;;;;;;;-4.80;99.90;;;;;;5070297;28;20424;-84
2024/01/16 05:13:02;;;;;;;;;;;-4.80;99.90;;;;;;5067707;28;20399;-83
2024/01/16 05:15:29;;;;;;;;;;;-4.80;99.90;;;;;;5067218;28;20311;-82
2024/01/16 05:17:56;;;;;;;;;;;-4.80;99.90;;;;;;5065072;28;19936;-83
2024/01/16 05:20:23;;;;;;;;;;;-4.80;99.90;;;;;;5067624;28;19936;-84
2024/01/16 05:22:50;;;;;;;;;;;-4.90;99.90;;;;;;5073262;28;20361;-83
2024/01/16 05:25:17;;;;;;;;;;;-4.90;99.90;;;;;;5084715;28;20373;-84
2024/01/16 05:27:44;;;;;;;;;;;-5.00;99.90;;;;;;5054098;28;20400;-84
2024/01/16 05:30:11;;;;;;;;;;;-5.00;99.90;;;;;;5088987;28;19924;-85
2024/01/16 05:32:41;;;;;;;;;;;-5.10;99.90;;;;;;5053749;28;19929;-81
2024/01/16 05:35:09;;;;;;;;;;;-5.00;99.90;;;;;;5055059;28;19928;-83
2024/01/16 05:37:36;;;;;;;;;;;-5.00;99.90;;;;;;5065865;28;20004;-82
2024/01/16 05:40:04;;;;;;;;;;;-5.10;99.90;;;;;;5050803;28;19932;-82
2024/01/16 05:42:31;;;;;;;;;;;-5.00;99.90;;;;;;5072450;28;20567;-83
2024/01/16 05:44:57;;;;;;;;;;;-5.00;99.90;;;;;;5047687;28;20114;-82
2024/01/16 05:47:27;;;;;;;;;;;-5.10;99.90;;;;;;5065606;28;20047;-83
2024/01/16 05:49:55;;;;;;;;;;;-5.20;99.90;;;;;;5071681;28;20020;-83
2024/01/16 05:52:22;;;;;;;;;;;-5.10;99.90;;;;;;5040919;28;20423;-84
2024/01/16 05:54:49;;;;;;;;;;;-5.20;99.90;;;;;;5066374;28;19931;-83
2024/01/16 05:57:16;;;;;;;;;;;-5.20;99.90;;;;;;5072551;28;19946;-82
2024/01/16 05:59:43;;;;;;;;;;;-5.10;99.90;;;;;;5064005;28;19956;-84
2024/01/16 06:02:10;;;;;;;;;;;-5.10;99.90;;;;;;5062928;28;19924;-83
2024/01/16 06:04:37;;;;;;;;;;;-5.20;99.90;;;;;;5064175;28;20449;-83
2024/01/16 06:07:07;;;;;;;;;;;-5.20;99.90;;;;;;5054337;28;19967;-84
2024/01/16 06:09:38;;;;;;;;;;;-5.20;99.90;;;;;;5077937;28;19929;-83
2024/01/16 06:12:06;;;;;;;;;;;-5.20;99.90;;;;;;5080992;28;19935;-84
2024/01/16 06:14:33;;;;;;;;;;;-5.20;99.90;;;;;;5068746;28;19932;-84
2024/01/16 06:17:00;;;;;;;;;;;-5.30;99.90;;;;;;5052776;28;19939;-84
2024/01/16 06:19:27;;;;;;;;;;;-5.30;99.90;;;;;;5054366;28;19925;-85
2024/01/16 06:21:54;;;;;;;;;;;-5.30;99.90;;;;;;5051764;28;19936;-84
2024/01/16 06:24:21;;;;;;;;;;;-5.30;99.90;;;;;;5050165;28;19955;-84
2024/01/16 06:26:48;;;;;;;;;;;-5.20;99.90;;;;;;5061066;28;19933;-84
2024/01/16 06:29:15;;;;;;;;;;;-5.20;99.90;;;;;;5085287;28;19932;-83
2024/01/16 06:31:57;;;;;;;;;;;-5.20;99.90;;;;;;5067745;28;19943;-84
2024/01/16 06:34:23;;;;;;;;;;;-5.20;99.90;;;;;;5081842;28;19928;-84
2024/01/16 06:36:50;;;;;;;;;;;-5.20;99.90;;;;;;5081551;28;19928;-84
2024/01/16 06:39:18;;;;;;;;;;;-5.20;99.90;;;;;;5098169;28;19936;-84
2024/01/16 06:41:44;;;;;;;;;;;-5.30;99.90;;;;;;5076313;28;19924;-84
2024/01/16 06:44:11;;;;;;;;;;;-5.20;99.90;;;;;;5079338;28;19939;-85
2024/01/16 06:46:38;;;;;;;;;;;-5.20;99.90;;;;;;5075592;28;19938;-84
2024/01/16 06:49:05;;;;;;;;;;;-5.20;99.90;;;;;;5074795;28;19924;-85
2024/01/16 06:51:32;;;;;;;;;;;-5.20;99.90;;;;;;5080000;28;20023;-84
2024/01/16 06:53:59;;;;;;;;;;;-5.20;99.90;;;;;;5076921;28;19928;-84
2024/01/16 06:56:26;;;;;;;;;;;-5.20;99.90;;;;;;5082576;28;19929;-84
2024/01/16 06:58:53;;;;;;;;;;;-5.20;99.90;;;;;;5078957;28;19978;-84
2024/01/16 07:01:20;;;;;;;;;;;-5.20;99.90;;;;;;5094808;28;20377;-83
2024/01/16 07:03:47;;;;;;;;;;;-5.20;99.90;;;;;;5080966;28;19953;-83
2024/01/16 07:06:13;;;;;;;;;;;-5.20;99.90;;;;;;5062026;28;19928;-84
2024/01/16 07:08:40;;;;;;;;;;;-5.20;99.90;;;;;;5076604;28;19928;-84
2024/01/16 07:11:08;;;;;;;;;;;-5.20;99.90;;;;;;5076310;28;19991;-85
2024/01/16 07:13:35;;;;;;;;;;;-5.20;99.90;;;;;;5071486;28;19936;-84
2024/01/16 07:16:02;;;;;;;;;;;-5.20;99.90;;;;;;5080122;28;19928;-84
2024/01/16 07:18:29;;;;;;;;;;;-5.20;99.90;;;;;;5076911;28;20388;-84
2024/01/16 07:20:56;;;;;;;;;;;-5.20;99.90;;;;;;5085941;28;19935;-84
2024/01/16 07:23:23;;;;;;;;;;;-5.30;99.90;;;;;;5086060;28;19978;-84
2024/01/16 07:25:50;;;;;;;;;;;-5.30;99.90;;;;;;5074994;28;19935;-84
2024/01/16 07:28:17;;;;;;;;;;;-5.40;99.90;;;;;;5061304;28;19928;-83
2024/01/16 07:30:44;;;;;;;;;;;-5.40;99.90;;;;;;5076624;28;20398;-84
2024/01/16 07:33:11;;;;;;;;;;;-5.40;99.90;;;;;;5079813;28;21642;-84
2024/01/16 07:35:40;;;;;;;;;;;-5.40;99.90;;;;;;5075520;28;19924;-86
2024/01/16 07:38:08;;;;;;;;;;;-5.40;99.90;;;;;;5055421;28;19935;-87
2024/01/16 07:40:35;;;;;;;;;;;-5.40;99.90;;;;;;5060104;28;20643;-86
2024/01/16 07:43:02;;;;;;;;;;;-5.40;99.90;;;;;;5059639;28;19928;-87
2024/01/16 07:45:29;;;;;;;;;;;-5.40;99.90;;;;;;5091473;28;19935;-86
2024/01/16 07:47:56;;;;;;;;;;;-5.40;99.90;;;;;;5058132;28;19934;-86
2024/01/16 07:50:23;;;;;;;;;;;-5.30;99.90;;;;;;5064759;28;19932;-86
2024/01/16 07:52:50;;;;;;;;;;;-5.30;99.90;;;;;;5058444;28;19992;-86
2024/01/16 07:55:18;;;;;;;;;;;-5.30;99.90;;;;;;5067388;28;20408;-86
2024/01/16 07:57:49;;;;;;;;;;;-5.30;99.90;;;;;;5071780;28;20372;-87
2024/01/16 08:00:16;;;;;;;;;;;-5.30;99.90;;;;;;5086114;28;19935;-86
2024/01/16 08:02:44;;;;;;;;;;;-5.30;99.90;;;;;;5055288;28;19936;-88
2024/01/16 08:05:11;;;;;;;;;;;-5.30;99.90;;;;;;5084574;28;19928;-85
2024/01/16 08:07:38;;;;;;;;;;;-5.30;99.90;;;;;;5051565;28;19935;-86
2024/01/16 08:10:05;;;;;;;;;;;-5.30;99.90;;;;;;5076409;28;19936;-86
2024/01/16 08:12:31;;;;;;;;;;;-5.20;99.90;;;;;;5054045;28;20011;-86
2024/01/16 08:14:58;;;;;;;;;;;-5.30;99.90;;;;;;5051254;28;19931;-87
2024/01/16 08:17:25;;;;;;;;;;;-5.30;99.90;;;;;;5076025;28;20023;-86
2024/01/16 08:19:52;;;;;;;;;;;-5.30;99.90;;;;;;5069338;28;20359;-86
2024/01/16 08:22:19;;;;;;;;;;;-5.30;99.90;;;;;;5035241;28;20023;-86
2024/01/16 08:24:46;;;;;;;;;;;-5.30;99.90;;;;;;5068563;28;19925;-84
2024/01/16 08:27:13;;;;;;;;;;;-5.30;99.90;;;;;;5066350;28;20027;-86
2024/01/16 08:29:40;;;;;;;;;;;-5.20;99.90;;;;;;5067928;28;19951;-85
2024/01/16 08:32:07;;;;;;;;;;;-5.20;99.90;;;;;;5055790;28;19992;-86
2024/01/16 08:34:34;;;;;;;;;;;-5.20;99.90;;;;;;5054836;28;19928;-87
2024/01/16 08:37:01;;;;;;;;;;;-5.20;99.90;;;;;;5067989;28;19925;-86
2024/01/16 08:39:28;;;;;;;;;;;-5.20;99.90;;;;;;5065764;28;19924;-86
2024/01/16 08:41:57;;;;;;;;;;;-5.20;99.90;;;;;;5071464;28;20369;-87
2024/01/16 08:44:24;;;;;;;;;;;-5.20;99.90;;;;;;5077849;28;19978;-86
2024/01/16 08:46:51;;;;;;;;;;;-5.10;99.90;;;;;;5051250;28;20370;-83
2024/01/16 08:49:18;;;;;;;;;;;-5.10;99.90;;;;;;5065569;28;20379;-84
2024/01/16 08:51:47;;;;;;;;;;;-5.00;99.90;;;;;;5074917;28;20673;-84
2024/01/16 08:54:14;;;;;;;;;;;-5.10;99.90;;;;;;5061735;28;19991;-84
2024/01/16 08:56:41;;;;;;;;;;;-5.10;99.90;;;;;;5049346;28;19936;-84
2024/01/16 08:59:10;;;;;;;;;;;-5.10;99.90;;;;;;5050754;28;19932;-82
2024/01/16 09:01:37;;;;;;;;;;;-5.10;99.90;;;;;;5064784;28;19924;-82
2024/01/16 09:04:03;;;;;;;;;;;-5.10;99.90;;;;;;5055779;28;20192;-83
2024/01/16 09:06:31;;;;;;;;;;;-5.00;99.90;;;;;;5071274;28;20427;-84
2024/01/16 09:08:58;;;;;;;;;;;-5.10;99.90;;;;;;5083952;28;19924;-83
2024/01/16 09:11:25;;;;;;;;;;;-5.10;99.90;;;;;;5053901;28;19924;-84
2024/01/16 09:13:52;;;;;;;;;;;-5.10;99.90;;;;;;5072332;28;20479;-83
2024/01/16 09:16:18;;;;;;;;;;;-5.10;99.90;;;;;;5053854;28;19924;-83
2024/01/16 09:18:46;;;;;;;;;;;-5.00;99.90;;;;;;5086701;28;19925;-83
2024/01/16 09:21:13;;;;;;;;;;;-5.00;99.90;;;;;;5054914;28;20391;-83
2024/01/16 09:23:39;;;;;;;;;;;-5.00;99.90;;;;;;5068561;28;19939;-83
2024/01/16 09:26:06;;;;;;;;;;;-5.00;99.90;;;;;;5069641;28;19928;-83
2024/01/16 09:28:33;;;;;;;;;;;-4.90;99.90;;;;;;5068328;28;19924;-84
2024/01/16 09:31:00;;;;;;;;;;;-4.90;99.90;;;;;;5053383;28;20448;-84
2024/01/16 09:33:27;;;;;;;;;;;-4.90;99.90;;;;;;5048389;28;20015;-83
2024/01/16 09:35:54;;;;;;;;;;;-4.80;99.90;;;;;;5073430;28;20454;-84
2024/01/16 09:38:21;;;;;;;;;;;-4.90;99.90;;;;;;5068096;28;19925;-84
2024/01/16 09:40:50;;;;;;;;;;;-4.80;99.90;;;;;;5053054;28;19932;-84
2024/01/16 09:43:20;;;;;;;;;;;-4.80;99.90;;;;;;5055414;28;19924;-84
2024/01/16 09:45:47;;;;;;;;;;;-4.70;99.90;;;;;;5050506;28;20015;-83
2024/01/16 09:48:14;;;;;;;;;;;-4.70;99.90;;;;;;5084266;28;19935;-84
2024/01/16 09:50:41;;;;;;;;;;;-4.70;99.90;;;;;;5070758;28;19935;-83
2024/01/16 09:53:08;;;;;;;;;;;-4.70;99.90;;;;;;5051104;28;19929;-84
2024/01/16 09:55:36;;;;;;;;;;;-4.70;99.90;;;;;;5064092;28;20416;-84
2024/01/16 09:58:05;;;;;;;;;;;-4.70;99.90;;;;;;5080024;28;20672;-84
2024/01/16 10:00:32;;;;;;;;;;;-4.70;99.90;;;;;;5082461;28;19931;-84
2024/01/16 10:02:59;;;;;;;;;;;-4.70;99.90;;;;;;5090305;28;20450;-84
2024/01/16 10:05:26;;;;;;;;;;;-4.60;99.90;;;;;;5089813;28;19928;-84
2024/01/16 10:07:54;;;;;;;;;;;-4.60;99.90;;;;;;5083397;28;20525;-84
2024/01/16 10:10:22;;;;;;;;;;;-4.60;99.90;;;;;;5081476;28;19995;-84
2024/01/16 10:13:04;;;;;;;;;;;-4.60;99.90;;;;;;5074697;28;19932;-84
2024/01/16 10:15:31;;;;;;;;;;;-4.50;99.90;;;;;;5076284;28;19935;-84
2024/01/16 10:17:59;;;;;;;;;;;-4.50;99.90;;;;;;5061342;28;20065;-85
2024/01/16 10:20:34;;;;;;;;;;;-4.50;99.90;;;;;;5061502;28;19936;-85
2024/01/16 10:23:03;;;;;;;;;;;-4.50;99.90;;;;;;5081319;28;19935;-84
2024/01/16 10:25:31;;;;;;;;;;;-4.50;99.90;;;;;;5078467;28;19928;-84
2024/01/16 10:28:09;;;;;;;;;;;-4.50;99.90;;;;;;5070217;28;19989;-85
2024/01/16 10:30:36;;;;;;;;;;;-4.40;99.90;;;;;;5082638;28;19924;-85
2024/01/16 10:33:23;;;;;;;;;;;-4.40;99.90;;;;;;5080476;28;19974;-85
2024/01/16 10:35:51;;;;;;;;;;;-4.40;99.90;;;;;;5055063;28;19925;-84
2024/01/16 10:38:22;;;;;;;;;;;-4.30;99.90;;;;;;5061411;28;19942;-85
2024/01/16 10:41:03;;;;;;;;;;;-4.40;99.90;;;;;;5079253;28;20022;-85
2024/01/16 10:43:30;;;;;;;;;;;-4.40;99.90;;;;;;5088046;28;20301;-84
2024/01/16 10:46:27;;;;;;;;;;;-4.40;99.90;;;;;;5068043;28;20426;-85
2024/01/16 10:49:01;;;;;;;;;;;-4.40;99.90;;;;;;5056307;28;19937;-85
2024/01/16 10:51:29;;;;;;;;;;;-4.40;99.90;;;;;;5095419;28;19967;-85
2024/01/16 10:54:01;;;;;;;;;;;-4.50;99.90;;;;;;5061074;28;19928;-85
2024/01/16 10:56:28;;;;;;;;;;;-4.50;99.90;;;;;;5054348;28;19928;-84
2024/01/16 10:59:06;;;;;;;;;;;-4.40;99.90;;;;;;5094971;28;20365;-85
2024/01/16 11:01:33;;;;;;;;;;;-4.50;99.90;;;;;;5092566;28;19924;-85
2024/01/16 11:04:01;;;;;;;;;;;-4.50;99.90;;;;;;5077031;28;19951;-85
2024/01/16 11:06:28;;;;;;;;;;;-4.50;99.90;;;;;;5069763;28;19932;-86
2024/01/16 11:08:56;;;;;;;;;;;-4.40;99.90;;;;;;5068960;28;20381;-85
2024/01/16 11:11:23;;;;;;;;;;;-4.40;99.90;;;;;;5085919;28;19924;-85
2024/01/16 11:13:50;;;;;;;;;;;-4.40;99.90;;;;;;5061032;28;19924;-85
2024/01/16 11:16:18;;;;;;;;;;;-4.40;99.90;;;;;;5069163;28;19996;-85
2024/01/16 11:18:45;;;;;;;;;;;-4.40;99.90;;;;;;5069432;28;19934;-85
2024/01/16 11:21:13;;;;;;;;;;;-4.40;99.90;;;;;;5074881;28;19925;-85
2024/01/16 11:23:45;;;;;;;;;;;-4.30;99.90;;;;;;5056844;28;19928;-85
2024/01/16 11:26:32;;;;;;;;;;;-4.30;99.90;;;;;;5053483;28;20448;-84
2024/01/16 11:29:00;;;;;;;;;;;-4.20;99.90;;;;;;5065916;28;20015;-85
2024/01/16 11:31:34;;;;;;;;;;;-4.30;99.90;;;;;;5071836;28;19928;-86
2024/01/16 11:34:02;;;;;;;;;;;-4.30;99.90;;;;;;5059189;28;19933;-87
2024/01/16 11:36:46;;;;;;;;;;;-4.30;99.90;;;;;;5069192;28;20024;-86
2024/01/16 11:39:17;;;;;;;;;;;-4.30;99.90;;;;;;5063108;28;20393;-85
2024/01/16 11:41:47;;;;;;;;;;;-4.30;99.90;;;;;;5073109;28;19947;-86
2024/01/16 11:44:33;;;;;;;;;;;-4.40;99.90;;;;;;5073173;28;20657;-85
2024/01/16 11:47:01;;;;;;;;;;;-4.40;99.90;;;;;;5055959;28;19940;-86
2024/01/16 11:49:31;;;;;;;;;;;-4.30;99.90;;;;;;5089434;28;19928;-85
2024/01/16 11:51:59;;;;;;;;;;;-4.40;99.90;;;;;;5078355;28;19928;-85
2024/01/16 11:54:26;;;;;;;;;;;-4.50;99.90;;;;;;5052194;28;19928;-85
2024/01/16 11:57:00;;;;;;;;;;;-4.50;99.90;;;;;;5062711;28;20351;-85
2024/01/16 11:59:47;;;;;;;;;;;-4.50;99.90;;;;;;5075666;28;20404;-85
2024/01/16 12:02:18;;;;;;;;;;;-4.60;99.90;;;;;;5079582;28;20149;-85
2024/01/16 12:04:51;;;;;;;;;;;-4.70;99.90;;;;;;5064850;28;19979;-86
2024/01/16 12:07:18;;;;;;;;;;;-4.60;99.90;;;;;;5056778;28;19928;-86
2024/01/16 12:09:45;;;;;;;;;;;-4.60;99.90;;;;;;5068222;28;20003;-85
2024/01/16 12:12:15;;;;;;;;;;;-4.60;99.90;;;;;;5053129;28;19925;-85
2024/01/16 12:14:50;;;;;;;;;;;-4.70;99.90;;;;;;5068868;28;19924;-85
2024/01/16 12:17:20;;;;;;;;;;;-4.70;99.90;;;;;;5056980;28;19956;-86
2024/01/16 12:19:49;;;;;;;;;;;-4.70;99.90;;;;;;5059482;28;19932;-86
2024/01/16 12:22:22;;;;;;;;;;;-4.70;99.90;;;;;;5068036;28;19950;-86
2024/01/16 12:24:49;;;;;;;;;;;-4.70;99.90;;;;;;5069232;28;19932;-85
2024/01/16 12:27:16;;;;;;;;;;;-4.70;99.90;;;;;;5075743;28;19932;-86
2024/01/16 12:29:43;;;;;;;;;;;-4.60;99.90;;;;;;5070519;28;20377;-87
2024/01/16 12:32:16;;;;;;;;;;;-4.60;99.90;;;;;;5072338;28;20012;-86
2024/01/16 12:34:45;;;;;;;;;;;-4.70;99.90;;;;;;5064879;28;20749;-87
2024/01/16 12:37:12;;;;;;;;;;;-4.70;99.90;;;;;;5073827;28;20389;-86
2024/01/16 12:39:41;;;;;;;;;;;-4.70;99.90;;;;;;5054480;28;19924;-85
2024/01/16 12:42:12;;;;;;;;;;;-4.70;99.90;;;;;;5070296;28;19928;-86
2024/01/16 12:44:39;;;;;;;;;;;-4.80;99.90;;;;;;5053847;28;19932;-88
2024/01/16 12:47:07;;;;;;;;;;;-4.80;99.90;;;;;;5063496;28;19933;-91
2024/01/16 12:49:42;;;;;;;;;;;-4.80;99.90;;;;;;5075891;28;19970;-86
2024/01/16 12:52:20;;;;;;;;;;;-4.80;99.90;;;;;;5087579;28;19995;-86
2024/01/16 12:54:51;;;;;;;;;;;-4.90;99.90;;;;;;5083397;28;19936;-85
2024/01/16 12:57:21;;;;;;;;;;;-4.80;99.90;;;;;;5091077;28;19924;-85
2024/01/16 12:59:48;;;;;;;;;;;-4.80;99.90;;;;;;5089187;28;19954;-84
2024/01/16 13:02:24;;;;;;;;;;;-4.80;99.90;;;;;;5099918;28;20450;-85
2024/01/16 13:04:58;;;;;;;;;;;-4.80;99.90;;;;;;5094865;28;19935;-85
2024/01/16 13:07:26;;;;;;;;;;;-4.90;99.90;;;;;;5097195;28;19955;-84
2024/01/16 13:10:07;;;;;;;;;;;-5.00;99.90;;;;;;5067220;28;20000;-84
2024/01/16 13:12:34;;;;;;;;;;;-5.00;99.90;;;;;;5072312;28;19987;-85
2024/01/16 13:15:01;;;;;;;;;;;-5.00;99.90;;;;;;5074744;28;19968;-84
2024/01/16 13:17:30;;;;;;;;;;;-5.00;99.90;;;;;;5075223;28;20312;-85
2024/01/16 13:19:57;;;;;;;;;;;-5.00;99.90;;;;;;5061719;28;19982;-84
2024/01/16 13:22:24;;;;;;;;;;;-5.00;99.90;;;;;;5071531;28;19925;-84
2024/01/16 13:25:06;;;;;;;;;;;-5.10;99.90;;;;;;5090866;28;19929;-84
2024/01/16 13:27:35;;;;;;;;;;;-5.10;99.90;;;;;;5061878;28;19924;-85
2024/01/16 13:30:02;;;;;;;;;;;-5.10;99.90;;;;;;5080766;28;19932;-84
2024/01/16 13:32:29;;;;;;;;;;;-5.10;99.90;;;;;;5058509;28;19978;-84
2024/01/16 13:34:56;;;;;;;;;;;-5.20;99.90;;;;;;5066396;28;19928;-82
2024/01/16 13:37:23;;;;;;;;;;;-5.20;99.90;;;;;;5076883;28;20410;-83
2024/01/16 13:39:50;;;;;;;;;;;-5.20;99.90;;;;;;5073170;28;20293;-84
2024/01/16 13:42:19;;;;;;;;;;;-5.20;99.90;;;;;;5054968;28;19932;-83
2024/01/16 13:44:46;;;;;;;;;;;-5.20;99.90;;;;;;5050176;28;20358;-84
2024/01/16 13:47:15;;;;;;;;;;;-5.20;99.90;;;;;;5073377;28;19931;-83
2024/01/16 13:49:46;;;;;;;;;;;-5.30;99.90;;;;;;5036828;28;20032;-84
2024/01/16 13:52:13;;;;;;;;;;;-5.30;99.90;;;;;;5051630;28;19967;-84
2024/01/16 13:54:41;;;;;;;;;;;-5.30;99.90;;;;;;5075388;28;19928;-85
2024/01/16 13:57:09;;;;;;;;;;;-5.30;99.90;;;;;;5086801;28;19993;-85
2024/01/16 13:59:39;;;;;;;;;;;-5.40;99.90;;;;;;5059213;28;19928;-86
2024/01/16 14:02:08;;;;;;;;;;;-5.40;99.90;;;;;;5073158;28;20389;-86
2024/01/16 14:04:35;;;;;;;;;;;-5.40;99.90;;;;;;5073318;28;19933;-86
2024/01/16 14:07:03;;;;;;;;;;;-5.40;99.90;;;;;;5071337;28;20460;-85
2024/01/16 14:09:41;;;;;;;;;;;-5.40;99.90;;;;;;5043370;28;19925;-86
2024/01/16 14:12:09;;;;;;;;;;;-5.40;99.90;;;;;;5051361;28;20361;-85
2024/01/16 14:14:37;;;;;;;;;;;-5.40;99.90;;;;;;5070225;28;20017;-83
2024/01/16 14:17:05;;;;;;;;;;;-5.40;99.90;;;;;;5067070;28;19934;-84
2024/01/16 14:19:35;;;;;;;;;;;-5.40;99.90;;;;;;5050499;28;19936;-85
2024/01/16 14:22:02;;;;;;;;;;;-5.50;99.90;;;;;;5078497;28;20247;-85